createdAt,value
2022-11-17T00:01:55.749Z,5.60
2022-11-17T00:04:42.328Z,5.60
2022-11-17T00:07:28.864Z,5.60
2022-11-17T00:10:15.372Z,5.50
2022-11-17T00:13:01.892Z,5.40
2022-11-17T00:15:48.428Z,5.30
2022-11-17T00:18:34.937Z,5.20
2022-11-17T00:21:21.699Z,5.10
2022-11-17T00:24:08.399Z,5.00
2022-11-17T00:26:54.921Z,5.00
2022-11-17T00:29:41.458Z,4.80
2022-11-17T00:32:27.943Z,4.70
2022-11-17T00:35:14.569Z,4.60
2022-11-17T00:38:02.060Z,4.60
2022-11-17T00:40:48.574Z,4.50
2022-11-17T00:43:35.466Z,4.40
2022-11-17T00:46:22.295Z,4.40
2022-11-17T00:49:09.771Z,4.20
2022-11-17T00:51:56.322Z,4.10
2022-11-17T00:54:42.839Z,4.00
2022-11-17T00:57:29.360Z,3.90
2022-11-17T01:00:15.845Z,3.80
2022-11-17T01:03:02.390Z,3.80
2022-11-17T01:05:48.904Z,3.70
2022-11-17T01:08:35.428Z,3.60
2022-11-17T01:11:21.937Z,3.60
2022-11-17T01:14:08.451Z,3.60
2022-11-17T01:16:54.962Z,3.50
2022-11-17T01:19:41.481Z,3.50
2022-11-17T01:22:28.032Z,3.30
2022-11-17T01:25:14.556Z,3.10
2022-11-17T01:28:01.122Z,3.00
2022-11-17T01:30:47.600Z,3.10
2022-11-17T01:33:34.539Z,3.20
2022-11-17T01:36:21.272Z,3.30
2022-11-17T01:39:07.807Z,3.30
2022-11-17T01:41:54.309Z,3.20
2022-11-17T01:44:40.864Z,3.20
2022-11-17T01:47:27.332Z,3.30
2022-11-17T01:50:13.871Z,3.30
2022-11-17T01:53:00.393Z,3.30
2022-11-17T01:55:47.923Z,3.30
2022-11-17T01:58:34.444Z,3.30
2022-11-17T02:01:20.969Z,3.20
2022-11-17T02:04:07.496Z,3.20
2022-11-17T02:06:54.129Z,3.10
2022-11-17T02:09:40.706Z,3.10
2022-11-17T02:12:27.426Z,3.00
2022-11-17T02:15:13.925Z,3.00
2022-11-17T02:18:00.484Z,3.00
2022-11-17T02:20:46.973Z,2.90
2022-11-17T02:23:33.815Z,2.90
2022-11-17T02:26:20.580Z,2.90
2022-11-17T02:29:07.132Z,2.90
2022-11-17T02:31:53.683Z,2.90
2022-11-17T02:34:40.238Z,2.90
2022-11-17T02:37:26.716Z,2.80
2022-11-17T02:40:13.261Z,2.80
2022-11-17T02:42:59.775Z,2.90
2022-11-17T02:45:46.338Z,3.00
2022-11-17T02:48:32.856Z,3.00
2022-11-17T02:51:19.387Z,3.10
2022-11-17T02:54:05.915Z,3.10
2022-11-17T02:56:52.564Z,3.10
2022-11-17T02:59:39.080Z,3.10
2022-11-17T03:02:25.621Z,3.10
2022-11-17T03:05:12.106Z,3.10
2022-11-17T03:07:58.833Z,3.10
2022-11-17T03:10:45.371Z,3.10
2022-11-17T03:13:32.071Z,3.00
2022-11-17T03:16:18.751Z,3.00
2022-11-17T03:19:05.277Z,3.00
2022-11-17T03:21:51.801Z,3.00
2022-11-17T03:24:38.316Z,3.10
2022-11-17T03:27:24.835Z,3.00
2022-11-17T03:30:11.343Z,3.00
2022-11-17T03:32:57.827Z,2.90
2022-11-17T03:35:50.331Z,2.90
2022-11-17T03:38:37.260Z,2.90
2022-11-17T03:41:23.793Z,2.90
2022-11-17T03:44:10.312Z,2.90
2022-11-17T03:46:56.870Z,2.90
2022-11-17T03:49:43.352Z,2.90
2022-11-17T03:52:29.865Z,2.80
2022-11-17T03:55:16.411Z,2.80
2022-11-17T03:58:02.881Z,2.70
2022-11-17T04:00:49.443Z,2.70
2022-11-17T04:03:36.418Z,2.70
2022-11-17T04:06:23.130Z,2.80
2022-11-17T04:09:09.614Z,2.70
2022-11-17T04:11:56.172Z,2.70
2022-11-17T04:14:42.657Z,2.70
2022-11-17T04:17:29.281Z,2.70
2022-11-17T04:20:15.760Z,2.70
2022-11-17T04:23:02.286Z,2.80
2022-11-17T04:25:48.759Z,2.80
2022-11-17T04:28:35.316Z,2.80
2022-11-17T04:31:21.869Z,2.80
2022-11-17T04:34:08.507Z,2.80
2022-11-17T04:36:55.991Z,2.80
2022-11-17T04:39:42.493Z,2.70
2022-11-17T04:42:28.968Z,2.70
2022-11-17T04:45:15.668Z,2.80
2022-11-17T04:48:03.160Z,2.80
2022-11-17T04:50:49.700Z,2.80
2022-11-17T04:53:36.411Z,2.80
2022-11-17T04:56:23.046Z,2.70
2022-11-17T04:59:09.560Z,2.60
2022-11-17T05:01:58.796Z,2.60
2022-11-17T05:04:49.110Z,2.60
2022-11-17T05:07:35.797Z,2.70
2022-11-17T05:10:22.401Z,2.70
2022-11-17T05:13:08.960Z,2.70
2022-11-17T05:15:55.561Z,2.80
2022-11-17T05:18:42.181Z,2.80
2022-11-17T05:21:28.705Z,2.80
2022-11-17T05:24:15.247Z,2.80
2022-11-17T05:27:01.796Z,2.80
2022-11-17T05:29:48.521Z,2.80
2022-11-17T05:32:35.008Z,2.80
2022-11-17T05:35:21.505Z,2.80
2022-11-17T05:38:08.011Z,2.80
2022-11-17T05:40:54.504Z,2.90
2022-11-17T05:43:41.059Z,2.90
2022-11-17T05:46:28.544Z,3.00
2022-11-17T05:49:15.092Z,3.00
2022-11-17T05:52:01.568Z,2.90
2022-11-17T05:54:49.133Z,2.90
2022-11-17T05:57:35.676Z,2.90
2022-11-17T06:00:22.589Z,2.90
2022-11-17T06:03:09.072Z,2.90
2022-11-17T06:05:55.628Z,2.90
2022-11-17T06:08:42.139Z,2.90
2022-11-17T06:11:28.687Z,2.90
2022-11-17T06:14:15.221Z,2.90
2022-11-17T06:17:01.785Z,3.00
2022-11-17T06:19:48.268Z,3.00
2022-11-17T06:22:34.904Z,3.00
2022-11-17T06:25:22.396Z,3.00
2022-11-17T06:28:08.940Z,3.00
2022-11-17T06:30:55.456Z,3.00
2022-11-17T06:33:42.013Z,2.80
2022-11-17T06:36:28.531Z,2.80
2022-11-17T06:39:15.149Z,2.90
2022-11-17T06:42:01.688Z,2.90
2022-11-17T06:44:49.196Z,3.00
2022-11-17T06:47:35.670Z,3.20
2022-11-17T06:50:22.223Z,3.20
2022-11-17T06:53:08.778Z,3.20
2022-11-17T06:55:55.343Z,3.30
2022-11-17T06:58:41.910Z,3.30
2022-11-17T07:01:28.458Z,3.40
2022-11-17T07:04:15.066Z,3.40
2022-11-17T07:07:02.758Z,3.40
2022-11-17T07:09:50.369Z,3.40
2022-11-17T07:12:36.962Z,3.50
2022-11-17T07:15:23.499Z,3.60
2022-11-17T07:18:10.075Z,3.60
2022-11-17T07:20:56.679Z,3.50
2022-11-17T07:23:43.365Z,3.60
2022-11-17T07:26:29.931Z,3.70
2022-11-17T07:29:16.582Z,3.90
2022-11-17T07:32:03.298Z,4.00
2022-11-17T07:34:49.921Z,4.10
2022-11-17T07:37:36.630Z,4.20
2022-11-17T07:40:23.151Z,4.30
2022-11-17T07:43:09.703Z,4.30
2022-11-17T07:45:56.210Z,4.30
2022-11-17T07:48:42.863Z,4.40
2022-11-17T07:51:29.477Z,4.40
2022-11-17T07:54:16.147Z,4.50
2022-11-17T07:57:02.798Z,4.50
2022-11-17T07:59:49.366Z,4.50
2022-11-17T08:02:35.882Z,4.50
2022-11-17T08:05:22.449Z,4.60
2022-11-17T08:08:09.015Z,4.70
2022-11-17T08:10:55.689Z,4.80
2022-11-17T08:13:43.263Z,4.90
2022-11-17T08:16:29.842Z,5.00
2022-11-17T08:19:16.449Z,5.10
2022-11-17T08:22:03.077Z,5.10
2022-11-17T08:24:49.617Z,5.20
2022-11-17T08:27:36.286Z,5.20
2022-11-17T08:30:22.891Z,5.30
2022-11-17T08:33:09.498Z,5.40
2022-11-17T08:35:56.146Z,5.50
2022-11-17T08:38:42.684Z,5.60
2022-11-17T08:41:29.298Z,5.60
2022-11-17T08:44:15.902Z,5.70
2022-11-17T08:47:02.453Z,5.80
2022-11-17T08:49:50.022Z,5.80
2022-11-17T08:52:36.636Z,5.90
2022-11-17T08:55:23.287Z,6.00
2022-11-17T08:58:09.926Z,6.10
2022-11-17T09:01:02.335Z,6.20
2022-11-17T09:03:51.546Z,6.10
2022-11-17T09:06:38.057Z,6.20
2022-11-17T09:09:24.568Z,6.30
2022-11-17T09:12:11.127Z,6.40
2022-11-17T09:14:57.701Z,6.50
2022-11-17T09:17:44.326Z,6.60
2022-11-17T09:20:30.866Z,6.70
2022-11-17T09:23:17.454Z,6.80
2022-11-17T09:26:03.941Z,7.00
2022-11-17T09:28:50.463Z,7.10
2022-11-17T09:31:37.020Z,7.20
2022-11-17T09:34:23.654Z,7.30
2022-11-17T09:37:10.241Z,7.40
2022-11-17T09:39:56.790Z,7.40
2022-11-17T09:42:43.365Z,7.50
2022-11-17T09:45:30.005Z,7.50
2022-11-17T09:48:40.346Z,7.60
2022-11-17T09:51:23.022Z,7.60
2022-11-17T09:54:09.549Z,7.70
2022-11-17T09:56:56.106Z,7.70
2022-11-17T09:59:42.641Z,7.70
2022-11-17T10:02:29.474Z,7.70
2022-11-17T10:05:16.009Z,7.60
2022-11-17T10:08:02.544Z,7.60
2022-11-17T10:10:49.077Z,7.60
2022-11-17T10:13:35.829Z,7.60
2022-11-17T10:16:22.466Z,7.70
2022-11-17T10:19:08.989Z,7.60
2022-11-17T10:21:56.561Z,7.60
2022-11-17T10:24:44.206Z,7.60
2022-11-17T10:27:30.706Z,7.60
2022-11-17T10:30:17.306Z,7.60
2022-11-17T10:33:03.921Z,7.60
2022-11-17T10:35:50.445Z,7.60
2022-11-17T10:38:37.022Z,7.60
2022-11-17T10:41:23.636Z,7.70
2022-11-17T10:44:10.184Z,7.70
2022-11-17T10:47:02.420Z,7.70
2022-11-17T10:49:49.655Z,7.80
2022-11-17T10:52:36.211Z,7.80
2022-11-17T10:55:22.725Z,7.90
2022-11-17T10:58:09.266Z,7.90
2022-11-17T11:00:55.819Z,8.00
2022-11-17T11:03:42.393Z,8.00
2022-11-17T11:06:28.881Z,8.10
2022-11-17T11:09:16.485Z,8.10
2022-11-17T11:12:03.029Z,8.10
2022-11-17T11:14:49.548Z,8.20
2022-11-17T11:17:36.061Z,8.20
2022-11-17T11:20:22.607Z,8.30
2022-11-17T11:23:09.189Z,8.40
2022-11-17T11:25:55.738Z,8.40
2022-11-17T11:28:47.031Z,8.40
2022-11-17T11:31:35.573Z,8.40
2022-11-17T11:34:22.057Z,8.50
2022-11-17T11:37:08.645Z,8.60
2022-11-17T11:39:55.148Z,8.70
2022-11-17T11:42:41.683Z,8.80
2022-11-17T11:45:28.214Z,8.80
2022-11-17T11:48:14.791Z,8.90
2022-11-17T11:51:02.717Z,9.00
2022-11-17T11:53:49.298Z,9.10
2022-11-17T11:56:35.867Z,9.20
2022-11-17T11:59:22.624Z,9.20
2022-11-17T12:02:09.188Z,9.30
2022-11-17T12:04:55.757Z,9.50
2022-11-17T12:07:42.331Z,9.60
2022-11-17T12:10:28.846Z,9.60
2022-11-17T12:13:15.452Z,9.60
2022-11-17T12:16:01.984Z,9.60
2022-11-17T12:18:48.554Z,9.50
2022-11-17T12:21:35.058Z,9.40
2022-11-17T12:24:21.675Z,9.40
2022-11-17T12:27:08.261Z,9.40
2022-11-17T12:29:54.794Z,9.40
2022-11-17T12:32:41.322Z,9.40
2022-11-17T12:35:27.873Z,9.50
2022-11-17T12:38:14.376Z,9.50
2022-11-17T12:41:00.907Z,9.60
2022-11-17T12:43:48.376Z,9.70
2022-11-17T12:46:34.871Z,9.70
2022-11-17T12:49:21.500Z,9.70
2022-11-17T12:52:08.104Z,9.80
2022-11-17T12:54:54.738Z,9.80
2022-11-17T12:57:41.409Z,9.70
2022-11-17T13:00:27.983Z,9.60
2022-11-17T13:03:14.513Z,9.60
2022-11-17T13:06:27.815Z,9.50
2022-11-17T13:09:07.609Z,9.50
2022-11-17T13:11:54.158Z,9.50
2022-11-17T13:14:40.659Z,9.50
2022-11-17T13:17:27.241Z,9.40
2022-11-17T13:20:13.858Z,9.30
2022-11-17T13:23:00.359Z,9.30
2022-11-17T13:25:46.878Z,9.20
2022-11-17T13:28:33.405Z,9.10
2022-11-17T13:31:20.330Z,9.00
2022-11-17T13:34:06.813Z,8.90
2022-11-17T13:36:53.382Z,8.90
2022-11-17T13:39:40.281Z,8.70
2022-11-17T13:42:26.769Z,8.60
2022-11-17T13:45:13.438Z,8.50
2022-11-17T13:47:59.965Z,8.50
2022-11-17T13:50:46.486Z,8.40
2022-11-17T13:53:33.054Z,8.40
2022-11-17T13:56:19.635Z,8.40
2022-11-17T13:59:06.162Z,8.40
2022-11-17T14:01:52.860Z,8.30
2022-11-17T14:04:39.401Z,8.30
2022-11-17T14:07:26.022Z,8.30
2022-11-17T14:10:12.924Z,8.30
2022-11-17T14:12:59.543Z,8.30
2022-11-17T14:15:53.295Z,8.30
2022-11-17T14:18:40.317Z,8.20
2022-11-17T14:21:26.925Z,8.20
2022-11-17T14:24:13.915Z,8.20
2022-11-17T14:27:00.573Z,8.10
2022-11-17T14:29:47.109Z,8.10
2022-11-17T14:32:33.643Z,8.10
2022-11-17T14:35:20.143Z,8.10
2022-11-17T14:38:06.749Z,8.10
2022-11-17T14:40:53.259Z,8.10
2022-11-17T14:43:39.849Z,8.00
2022-11-17T14:46:26.349Z,8.00
2022-11-17T14:49:13.459Z,8.00
2022-11-17T14:52:00.373Z,8.00
2022-11-17T14:54:46.981Z,7.90
2022-11-17T14:57:33.486Z,7.90
2022-11-17T15:00:20.770Z,7.90
2022-11-17T15:03:07.527Z,7.80
2022-11-17T15:05:54.046Z,7.80
2022-11-17T15:08:40.634Z,7.60
2022-11-17T15:11:27.209Z,7.60
2022-11-17T15:14:14.344Z,7.50
2022-11-17T15:17:01.019Z,7.40
2022-11-17T15:19:54.185Z,7.30
2022-11-17T15:22:40.770Z,7.20
2022-11-17T15:25:27.326Z,7.10
2022-11-17T15:28:18.940Z,7.00
2022-11-17T15:31:07.982Z,7.00
2022-11-17T15:33:54.513Z,7.00
2022-11-17T15:36:41.021Z,6.90
2022-11-17T15:39:27.510Z,6.90
2022-11-17T15:42:14.051Z,6.90
2022-11-17T15:45:00.573Z,6.80
2022-11-17T15:47:47.190Z,6.70
2022-11-17T15:50:33.698Z,6.60
2022-11-17T15:53:20.229Z,6.60
2022-11-17T15:56:06.839Z,6.50
2022-11-17T15:58:53.422Z,6.40
2022-11-17T16:01:40.035Z,6.30
2022-11-17T16:04:26.618Z,6.20
2022-11-17T16:07:13.178Z,6.10
2022-11-17T16:09:59.844Z,6.00
2022-11-17T16:12:46.478Z,5.80
2022-11-17T16:15:32.958Z,5.70
2022-11-17T16:18:19.769Z,5.70
2022-11-17T16:21:06.346Z,5.70
2022-11-17T16:23:52.925Z,5.70
2022-11-17T16:26:39.597Z,5.70
2022-11-17T16:29:26.197Z,5.60
2022-11-17T16:32:12.762Z,5.60
2022-11-17T16:34:59.271Z,5.60
2022-11-17T16:37:45.829Z,5.60
2022-11-17T16:40:32.354Z,5.50
2022-11-17T16:43:18.957Z,5.50
2022-11-17T16:46:05.530Z,5.50
2022-11-17T16:48:52.145Z,5.40
2022-11-17T16:51:38.650Z,5.30
2022-11-17T16:54:25.181Z,5.30
2022-11-17T16:57:11.715Z,5.30
2022-11-17T16:59:59.245Z,5.10
2022-11-17T17:02:45.859Z,5.10
2022-11-17T17:05:32.522Z,5.10
2022-11-17T17:08:19.064Z,5.00
2022-11-17T17:11:05.584Z,5.00
2022-11-17T17:13:52.129Z,5.00
2022-11-17T17:16:38.701Z,4.90
2022-11-17T17:19:25.189Z,4.90
2022-11-17T17:22:11.746Z,5.00
2022-11-17T17:24:58.237Z,5.00
2022-11-17T17:27:44.811Z,5.00
2022-11-17T17:30:31.297Z,5.10
2022-11-17T17:33:17.845Z,5.20
2022-11-17T17:36:04.428Z,5.30
2022-11-17T17:38:55.357Z,5.40
2022-11-17T17:41:42.661Z,5.40
2022-11-17T17:44:29.229Z,5.50
2022-11-17T17:47:15.729Z,5.50
2022-11-17T17:50:02.321Z,5.50
2022-11-17T17:52:48.865Z,5.60
2022-11-17T17:55:35.460Z,5.50
2022-11-17T17:58:21.976Z,5.60
2022-11-17T18:01:08.624Z,5.50
2022-11-17T18:03:56.132Z,5.50
2022-11-17T18:06:42.697Z,5.50
2022-11-17T18:09:29.292Z,5.50
2022-11-17T18:12:15.812Z,5.60
2022-11-17T18:15:02.365Z,5.40
2022-11-17T18:17:48.976Z,5.40
2022-11-17T18:20:35.552Z,5.30
2022-11-17T18:23:22.081Z,5.40
2022-11-17T18:26:08.657Z,5.50
2022-11-17T18:28:55.313Z,5.50
2022-11-17T18:31:41.846Z,5.50
2022-11-17T18:34:28.468Z,5.50
2022-11-17T18:37:15.021Z,5.50
2022-11-17T18:40:01.547Z,5.50
2022-11-17T18:42:48.093Z,5.40
2022-11-17T18:45:34.664Z,5.50
2022-11-17T18:48:21.185Z,5.40
2022-11-17T18:51:23.042Z,5.40
2022-11-17T18:54:09.653Z,5.40
2022-11-17T18:56:56.148Z,5.40
2022-11-17T18:59:42.706Z,5.40
2022-11-17T19:02:29.394Z,5.40
2022-11-17T19:05:15.915Z,5.40
2022-11-17T19:08:02.406Z,5.40
2022-11-17T19:10:48.923Z,5.40
2022-11-17T19:13:35.426Z,5.30
2022-11-17T19:16:22.046Z,5.30
2022-11-17T19:19:08.545Z,5.20
2022-11-17T19:21:55.261Z,5.10
2022-11-17T19:24:41.849Z,5.10
2022-11-17T19:27:28.433Z,5.10
2022-11-17T19:30:15.003Z,5.00
2022-11-17T19:33:01.624Z,5.10
2022-11-17T19:35:48.165Z,5.00
2022-11-17T19:38:34.765Z,5.00
2022-11-17T19:41:21.337Z,5.00
2022-11-17T19:44:07.915Z,5.00
2022-11-17T19:46:54.443Z,5.00
2022-11-17T19:49:41.025Z,5.10
2022-11-17T19:52:27.537Z,5.10
2022-11-17T19:55:14.102Z,5.10
2022-11-17T19:58:00.647Z,5.00
2022-11-17T20:00:48.210Z,5.00
2022-11-17T20:03:34.726Z,5.00
2022-11-17T20:06:21.248Z,5.00
2022-11-17T20:09:07.773Z,5.00
2022-11-17T20:11:54.305Z,4.90
2022-11-17T20:14:40.873Z,4.90
2022-11-17T20:17:27.445Z,4.90
2022-11-17T20:20:14.978Z,4.90
2022-11-17T20:23:01.552Z,4.90
2022-11-17T20:25:48.172Z,4.80
2022-11-17T20:28:34.670Z,4.80
2022-11-17T20:31:21.185Z,4.80
2022-11-17T20:34:07.752Z,4.90
2022-11-17T20:36:54.329Z,4.90
2022-11-17T20:39:40.858Z,4.90
2022-11-17T20:42:27.443Z,4.90
2022-11-17T20:45:13.965Z,4.90
2022-11-17T20:48:00.497Z,5.00
2022-11-17T20:50:47.122Z,5.00
2022-11-17T20:53:33.693Z,5.00
2022-11-17T20:56:20.238Z,4.90
2022-11-17T20:59:06.820Z,4.80
2022-11-17T21:01:53.641Z,4.80
2022-11-17T21:04:41.162Z,4.70
2022-11-17T21:07:27.834Z,4.70
2022-11-17T21:10:14.472Z,4.70
2022-11-17T21:13:00.999Z,4.60
2022-11-17T21:15:47.538Z,4.60
2022-11-17T21:18:34.074Z,4.60
2022-11-17T21:21:20.648Z,4.50
2022-11-17T21:24:07.308Z,4.50
2022-11-17T21:26:53.841Z,4.40
2022-11-17T21:29:40.360Z,4.30
2022-11-17T21:32:26.870Z,4.20
2022-11-17T21:35:13.381Z,4.20
2022-11-17T21:37:59.948Z,4.10
2022-11-17T21:40:46.482Z,4.10
2022-11-17T21:43:33.977Z,4.10
2022-11-17T21:46:20.523Z,4.20
2022-11-17T21:49:07.020Z,4.20
2022-11-17T21:51:53.545Z,4.30
2022-11-17T21:54:40.040Z,4.30
2022-11-17T21:57:26.568Z,4.30
2022-11-17T22:00:13.052Z,4.20
2022-11-17T22:02:59.644Z,4.10
2022-11-17T22:05:46.220Z,3.90
2022-11-17T22:08:32.829Z,3.80
2022-11-17T22:11:19.321Z,3.70
2022-11-17T22:14:05.881Z,3.80
2022-11-17T22:16:52.450Z,3.80
2022-11-17T22:19:39.018Z,3.80
2022-11-17T22:22:25.590Z,3.80
2022-11-17T22:25:42.919Z,3.90
2022-11-17T22:28:18.607Z,3.90
2022-11-17T22:31:05.150Z,3.80
2022-11-17T22:33:51.683Z,3.80
2022-11-17T22:36:38.241Z,3.70
2022-11-17T22:39:24.770Z,3.60
2022-11-17T22:42:11.382Z,3.50
2022-11-17T22:44:57.961Z,3.50
2022-11-17T22:47:44.492Z,3.40
2022-11-17T22:50:31.057Z,3.30
2022-11-17T22:53:17.665Z,3.30
2022-11-17T22:56:04.242Z,3.10
2022-11-17T22:58:54.280Z,3.10
2022-11-17T23:01:45.881Z,3.20
2022-11-17T23:04:32.445Z,3.10
2022-11-17T23:07:19.041Z,3.10
2022-11-17T23:10:05.655Z,3.10
2022-11-17T23:12:52.189Z,3.00
2022-11-17T23:15:38.777Z,3.00
2022-11-17T23:18:25.289Z,2.90
2022-11-17T23:21:11.840Z,2.90
2022-11-17T23:23:58.398Z,2.80
2022-11-17T23:26:45.020Z,2.70
2022-11-17T23:29:31.520Z,2.60
2022-11-17T23:32:18.052Z,2.60
2022-11-17T23:35:04.590Z,2.70
2022-11-17T23:37:51.298Z,2.80
2022-11-17T23:40:37.803Z,2.80
2022-11-17T23:43:24.417Z,2.80
2022-11-17T23:46:10.992Z,2.90
2022-11-17T23:48:57.540Z,2.90
2022-11-17T23:51:44.080Z,3.00
2022-11-17T23:54:30.680Z,3.00
2022-11-17T23:57:17.216Z,3.00
